sensor_id;sensor_type;location;lat;lon;timestamp;pressure;altitude;pressure_sealevel;temperature;humidity
21545;BME280;10933;50.754;11.508;2022-10-16T00:01:14;99318.72;;;14.63;100.00
21545;BME280;10933;50.754;11.508;2022-10-16T00:03:42;99315.75;;;14.59;100.00
21545;BME280;10933;50.754;11.508;2022-10-16T00:06:09;99316.38;;;14.46;100.00
21545;BME280;10933;50.754;11.508;2022-10-16T00:08:37;99327.84;;;14.33;100.00
21545;BME280;10933;50.754;11.508;2022-10-16T00:11:10;99322.41;;;14.33;100.00
21545;BME280;10933;50.754;11.508;2022-10-16T00:13:38;99329.28;;;14.20;100.00
21545;BME280;10933;50.754;11.508;2022-10-16T00:16:05;99333.19;;;13.99;100.00
21545;BME280;10933;50.754;11.508;2022-10-16T00:18:32;99331.34;;;13.89;100.00
21545;BME280;10933;50.754;11.508;2022-10-16T00:21:18;99337.63;;;13.69;100.00
21545;BME280;10933;50.754;11.508;2022-10-16T00:23:45;99337.34;;;13.71;100.00
21545;BME280;10933;50.754;11.508;2022-10-16T00:26:16;99333.63;;;13.62;100.00
21545;BME280;10933;50.754;11.508;2022-10-16T00:28:44;99345.28;;;13.62;100.00
21545;BME280;10933;50.754;11.508;2022-10-16T00:31:12;99330.91;;;13.57;100.00
21545;BME280;10933;50.754;11.508;2022-10-16T00:33:39;99334.47;;;13.42;100.00
21545;BME280;10933;50.754;11.508;2022-10-16T00:36:08;99333.97;;;13.35;100.00
21545;BME280;10933;50.754;11.508;2022-10-16T00:38:35;99316.34;;;13.27;100.00
21545;BME280;10933;50.754;11.508;2022-10-16T00:41:04;99315.28;;;13.23;100.00
21545;BME280;10933;50.754;11.508;2022-10-16T00:43:49;99315.81;;;13.10;100.00
21545;BME280;10933;50.754;11.508;2022-10-16T00:49:11;99333.44;;;12.97;100.00
21545;BME280;10933;50.754;11.508;2022-10-16T00:51:42;99342.91;;;13.00;100.00
21545;BME280;10933;50.754;11.508;2022-10-16T00:54:12;99338.84;;;13.02;100.00
21545;BME280;10933;50.754;11.508;2022-10-16T00:56:40;99349.41;;;13.09;100.00
21545;BME280;10933;50.754;11.508;2022-10-16T00:59:23;99357.00;;;13.22;100.00
21545;BME280;10933;50.754;11.508;2022-10-16T01:01:51;99363.50;;;13.26;100.00
21545;BME280;10933;50.754;11.508;2022-10-16T01:04:17;99372.72;;;13.25;100.00
21545;BME280;10933;50.754;11.508;2022-10-16T01:06:56;99364.88;;;13.23;100.00
21545;BME280;10933;50.754;11.508;2022-10-16T01:15:12;99361.31;;;13.38;100.00
21545;BME280;10933;50.754;11.508;2022-10-16T01:20:35;99361.31;;;13.38;100.00
21545;BME280;10933;50.754;11.508;2022-10-16T01:23:10;99361.06;;;13.35;100.00
21545;BME280;10933;50.754;11.508;2022-10-16T01:28:53;99363.22;;;13.12;100.00
21545;BME280;10933;50.754;11.508;2022-10-16T01:31:26;99359.41;;;13.03;100.00
21545;BME280;10933;50.754;11.508;2022-10-16T01:34:18;99355.88;;;12.82;100.00
21545;BME280;10933;50.754;11.508;2022-10-16T01:36:51;99349.41;;;12.83;100.00
21545;BME280;10933;50.754;11.508;2022-10-16T01:39:22;99355.91;;;12.77;100.00
21545;BME280;10933;50.754;11.508;2022-10-16T01:41:54;99355.63;;;12.58;100.00
21545;BME280;10933;50.754;11.508;2022-10-16T01:44:26;99348.56;;;12.52;100.00
21545;BME280;10933;50.754;11.508;2022-10-16T01:46:54;99361.28;;;12.52;100.00
21545;BME280;10933;50.754;11.508;2022-10-16T01:49:23;99347.19;;;12.40;100.00
21545;BME280;10933;50.754;11.508;2022-10-16T01:51:55;99359.09;;;12.44;100.00
21545;BME280;10933;50.754;11.508;2022-10-16T01:54:25;99362.38;;;12.51;100.00
21545;BME280;10933;50.754;11.508;2022-10-16T01:56:54;99365.31;;;12.44;100.00
21545;BME280;10933;50.754;11.508;2022-10-16T01:59:22;99362.63;;;12.49;100.00
21545;BME280;10933;50.754;11.508;2022-10-16T02:01:58;99363.97;;;12.52;100.00
21545;BME280;10933;50.754;11.508;2022-10-16T02:04:34;99366.16;;;12.50;100.00
21545;BME280;10933;50.754;11.508;2022-10-16T02:07:02;99369.16;;;12.58;100.00
21545;BME280;10933;50.754;11.508;2022-10-16T02:09:30;99372.09;;;12.57;100.00
21545;BME280;10933;50.754;11.508;2022-10-16T02:12:00;99388.06;;;12.53;100.00
21545;BME280;10933;50.754;11.508;2022-10-16T02:14:30;99390.53;;;12.60;100.00
21545;BME280;10933;50.754;11.508;2022-10-16T02:16:56;99385.38;;;12.58;100.00
21545;BME280;10933;50.754;11.508;2022-10-16T02:19:23;99391.03;;;12.57;100.00
21545;BME280;10933;50.754;11.508;2022-10-16T02:21:56;99386.75;;;12.61;100.00
21545;BME280;10933;50.754;11.508;2022-10-16T02:24:39;99385.66;;;12.62;100.00
21545;BME280;10933;50.754;11.508;2022-10-16T02:27:23;99387.56;;;12.61;100.00
21545;BME280;10933;50.754;11.508;2022-10-16T02:29:56;99390.50;;;12.55;100.00
21545;BME280;10933;50.754;11.508;2022-10-16T02:32:30;99392.69;;;12.63;100.00
21545;BME280;10933;50.754;11.508;2022-10-16T02:34:57;99384.28;;;12.54;100.00
21545;BME280;10933;50.754;11.508;2022-10-16T02:37:25;99399.13;;;12.36;100.00
21545;BME280;10933;50.754;11.508;2022-10-16T02:39:52;99392.56;;;12.17;100.00
21545;BME280;10933;50.754;11.508;2022-10-16T02:42:19;99397.41;;;12.15;100.00
21545;BME280;10933;50.754;11.508;2022-10-16T02:44:45;99395.25;;;12.07;100.00
21545;BME280;10933;50.754;11.508;2022-10-16T02:47:11;99397.09;;;12.01;100.00
21545;BME280;10933;50.754;11.508;2022-10-16T02:49:38;99389.53;;;12.03;100.00
21545;BME280;10933;50.754;11.508;2022-10-16T02:52:04;99397.69;;;12.08;100.00
21545;BME280;10933;50.754;11.508;2022-10-16T02:54:30;99400.66;;;12.12;100.00
21545;BME280;10933;50.754;11.508;2022-10-16T02:56:56;99399.03;;;12.16;100.00
21545;BME280;10933;50.754;11.508;2022-10-16T02:59:23;99399.91;;;12.27;100.00
21545;BME280;10933;50.754;11.508;2022-10-16T03:01:49;99411.25;;;12.29;100.00
21545;BME280;10933;50.754;11.508;2022-10-16T03:04:15;99399.34;;;12.30;100.00
21545;BME280;10933;50.754;11.508;2022-10-16T03:06:41;99403.38;;;12.12;100.00
21545;BME280;10933;50.754;11.508;2022-10-16T03:09:07;99386.06;;;12.08;100.00
21545;BME280;10933;50.754;11.508;2022-10-16T03:11:34;99393.09;;;12.19;100.00
21545;BME280;10933;50.754;11.508;2022-10-16T03:14:00;99392.88;;;12.21;100.00
21545;BME280;10933;50.754;11.508;2022-10-16T03:16:26;99395.84;;;12.24;100.00
21545;BME280;10933;50.754;11.508;2022-10-16T03:18:52;99401.78;;;12.31;100.00
21545;BME280;10933;50.754;11.508;2022-10-16T03:21:18;99404.78;;;12.30;100.00
21545;BME280;10933;50.754;11.508;2022-10-16T03:23:44;99411.00;;;12.25;100.00
21545;BME280;10933;50.754;11.508;2022-10-16T03:26:11;99401.25;;;12.24;100.00
21545;BME280;10933;50.754;11.508;2022-10-16T03:28:37;99398.00;;;12.22;100.00
21545;BME280;10933;50.754;11.508;2022-10-16T03:31:03;99384.75;;;12.21;100.00
21545;BME280;10933;50.754;11.508;2022-10-16T03:33:29;99385.56;;;12.21;100.00
21545;BME280;10933;50.754;11.508;2022-10-16T03:35:55;99389.88;;;12.22;100.00
21545;BME280;10933;50.754;11.508;2022-10-16T03:38:22;99400.66;;;12.12;100.00
21545;BME280;10933;50.754;11.508;2022-10-16T03:40:48;99394.44;;;12.12;100.00
21545;BME280;10933;50.754;11.508;2022-10-16T03:43:14;99382.72;;;11.91;100.00
21545;BME280;10933;50.754;11.508;2022-10-16T03:45:41;99373.50;;;11.82;100.00
21545;BME280;10933;50.754;11.508;2022-10-16T03:48:07;99384.38;;;11.97;100.00
21545;BME280;10933;50.754;11.508;2022-10-16T03:50:33;99375.72;;;11.95;100.00
21545;BME280;10933;50.754;11.508;2022-10-16T03:52:59;99379.75;;;11.92;100.00
21545;BME280;10933;50.754;11.508;2022-10-16T03:55:25;99385.47;;;11.96;100.00
21545;BME280;10933;50.754;11.508;2022-10-16T03:57:51;99389.47;;;11.93;100.00
21545;BME280;10933;50.754;11.508;2022-10-16T04:00:17;99377.34;;;11.96;100.00
21545;BME280;10933;50.754;11.508;2022-10-16T04:02:43;99388.66;;;11.93;100.00
21545;BME280;10933;50.754;11.508;2022-10-16T04:05:10;99380.81;;;11.86;100.00
21545;BME280;10933;50.754;11.508;2022-10-16T04:07:36;99398.81;;;11.70;100.00
21545;BME280;10933;50.754;11.508;2022-10-16T04:10:02;99384.19;;;11.66;100.00
21545;BME280;10933;50.754;11.508;2022-10-16T04:12:28;99393.47;;;11.81;100.00
21545;BME280;10933;50.754;11.508;2022-10-16T04:14:55;99388.56;;;11.77;100.00
21545;BME280;10933;50.754;11.508;2022-10-16T04:17:21;99400.41;;;11.66;100.00
21545;BME280;10933;50.754;11.508;2022-10-16T04:19:47;99408.88;;;11.80;100.00
21545;BME280;10933;50.754;11.508;2022-10-16T04:22:13;99417.81;;;11.81;100.00
21545;BME280;10933;50.754;11.508;2022-10-16T04:24:39;99418.81;;;11.74;100.00
21545;BME280;10933;50.754;11.508;2022-10-16T04:27:05;99422.63;;;11.78;100.00
21545;BME280;10933;50.754;11.508;2022-10-16T04:29:32;99425.91;;;11.81;100.00
21545;BME280;10933;50.754;11.508;2022-10-16T04:31:58;99421.00;;;11.77;100.00
21545;BME280;10933;50.754;11.508;2022-10-16T04:34:24;99434.00;;;11.81;100.00
21545;BME280;10933;50.754;11.508;2022-10-16T04:36:50;99440.00;;;11.88;100.00
21545;BME280;10933;50.754;11.508;2022-10-16T04:39:17;99459.91;;;11.71;100.00
21545;BME280;10933;50.754;11.508;2022-10-16T04:41:43;99463.78;;;11.86;100.00
21545;BME280;10933;50.754;11.508;2022-10-16T04:44:09;99454.06;;;11.90;100.00
21545;BME280;10933;50.754;11.508;2022-10-16T04:46:35;99458.91;;;11.83;100.00
21545;BME280;10933;50.754;11.508;2022-10-16T04:49:01;99457.88;;;11.94;100.00
21545;BME280;10933;50.754;11.508;2022-10-16T04:51:27;99460.03;;;11.92;100.00
21545;BME280;10933;50.754;11.508;2022-10-16T04:53:54;99472.50;;;11.98;100.00
21545;BME280;10933;50.754;11.508;2022-10-16T04:56:21;99470.88;;;11.97;100.00
21545;BME280;10933;50.754;11.508;2022-10-16T04:58:50;99476.84;;;12.04;100.00
21545;BME280;10933;50.754;11.508;2022-10-16T05:01:17;99474.69;;;12.01;100.00
21545;BME280;10933;50.754;11.508;2022-10-16T05:03:43;99483.63;;;12.06;100.00
21545;BME280;10933;50.754;11.508;2022-10-16T05:06:09;99481.28;;;12.20;100.00
21545;BME280;10933;50.754;11.508;2022-10-16T05:08:38;99477.38;;;12.01;100.00
21545;BME280;10933;50.754;11.508;2022-10-16T05:11:05;99482.78;;;12.01;100.00
21545;BME280;10933;50.754;11.508;2022-10-16T05:13:31;99487.66;;;12.04;100.00
21545;BME280;10933;50.754;11.508;2022-10-16T05:15:57;99477.91;;;11.98;100.00
21545;BME280;10933;50.754;11.508;2022-10-16T05:18:23;99472.53;;;12.03;100.00
21545;BME280;10933;50.754;11.508;2022-10-16T05:20:49;99486.31;;;12.01;100.00
21545;BME280;10933;50.754;11.508;2022-10-16T05:23:15;99489.88;;;12.07;100.00
21545;BME280;10933;50.754;11.508;2022-10-16T05:25:41;99492.00;;;12.00;100.00
21545;BME280;10933;50.754;11.508;2022-10-16T05:28:08;99492.00;;;12.05;100.00
21545;BME280;10933;50.754;11.508;2022-10-16T05:30:34;99490.44;;;12.09;100.00
21545;BME280;10933;50.754;11.508;2022-10-16T05:33:02;99486.09;;;12.13;100.00
21545;BME280;10933;50.754;11.508;2022-10-16T05:35:29;99493.41;;;12.07;100.00
21545;BME280;10933;50.754;11.508;2022-10-16T05:37:55;99484.63;;;11.90;100.00
21545;BME280;10933;50.754;11.508;2022-10-16T05:40:21;99500.66;;;12.02;100.00
21545;BME280;10933;50.754;11.508;2022-10-16T05:42:47;99508.50;;;12.03;100.00
21545;BME280;10933;50.754;11.508;2022-10-16T05:45:13;99503.94;;;12.09;100.00
21545;BME280;10933;50.754;11.508;2022-10-16T05:47:40;99515.59;;;12.15;100.00
21545;BME280;10933;50.754;11.508;2022-10-16T05:50:07;99520.50;;;12.23;100.00
21545;BME280;10933;50.754;11.508;2022-10-16T05:52:33;99519.69;;;12.22;100.00
21545;BME280;10933;50.754;11.508;2022-10-16T05:54:59;99520.25;;;12.24;100.00
21545;BME280;10933;50.754;11.508;2022-10-16T05:57:25;99524.31;;;12.27;100.00
21545;BME280;10933;50.754;11.508;2022-10-16T05:59:51;99534.59;;;12.30;100.00
21545;BME280;10933;50.754;11.508;2022-10-16T06:02:17;99556.53;;;12.33;100.00
21545;BME280;10933;50.754;11.508;2022-10-16T06:04:43;99556.28;;;12.35;100.00
21545;BME280;10933;50.754;11.508;2022-10-16T06:07:10;99571.72;;;12.40;100.00
21545;BME280;10933;50.754;11.508;2022-10-16T06:09:36;99565.75;;;12.32;100.00
21545;BME280;10933;50.754;11.508;2022-10-16T06:12:03;99566.56;;;12.33;100.00
21545;BME280;10933;50.754;11.508;2022-10-16T06:14:29;99557.16;;;12.46;100.00
21545;BME280;10933;50.754;11.508;2022-10-16T06:16:58;99555.25;;;12.46;100.00
21545;BME280;10933;50.754;11.508;2022-10-16T06:19:24;99553.25;;;12.31;100.00
21545;BME280;10933;50.754;11.508;2022-10-16T06:21:50;99554.44;;;12.46;100.00
21545;BME280;10933;50.754;11.508;2022-10-16T06:24:16;99562.28;;;12.47;100.00
21545;BME280;10933;50.754;11.508;2022-10-16T06:26:42;99564.69;;;12.44;100.00
21545;BME280;10933;50.754;11.508;2022-10-16T06:29:09;99581.53;;;12.56;100.00
21545;BME280;10933;50.754;11.508;2022-10-16T06:31:35;99590.72;;;12.55;100.00
21545;BME280;10933;50.754;11.508;2022-10-16T06:34:01;99578.88;;;12.61;100.00
21545;BME280;10933;50.754;11.508;2022-10-16T06:36:28;99578.94;;;12.81;100.00
21545;BME280;10933;50.754;11.508;2022-10-16T06:38:54;99586.31;;;12.96;100.00
21545;BME280;10933;50.754;11.508;2022-10-16T06:41:22;99581.22;;;13.10;100.00
21545;BME280;10933;50.754;11.508;2022-10-16T06:43:48;99577.97;;;13.18;100.00
21545;BME280;10933;50.754;11.508;2022-10-16T06:46:17;99582.88;;;13.21;100.00
21545;BME280;10933;50.754;11.508;2022-10-16T06:48:44;99571.50;;;13.19;100.00
21545;BME280;10933;50.754;11.508;2022-10-16T06:51:18;99569.91;;;13.23;100.00
21545;BME280;10933;50.754;11.508;2022-10-16T06:53:47;99579.16;;;13.37;100.00
21545;BME280;10933;50.754;11.508;2022-10-16T06:56:21;99576.47;;;13.47;100.00
21545;BME280;10933;50.754;11.508;2022-10-16T06:58:48;99580.81;;;13.79;100.00
21545;BME280;10933;50.754;11.508;2022-10-16T07:01:16;99577.03;;;13.85;100.00
21545;BME280;10933;50.754;11.508;2022-10-16T07:03:43;99564.53;;;13.84;100.00
21545;BME280;10933;50.754;11.508;2022-10-16T07:06:15;99579.16;;;14.13;100.00
21545;BME280;10933;50.754;11.508;2022-10-16T07:08:45;99597.00;;;14.35;100.00
21545;BME280;10933;50.754;11.508;2022-10-16T07:11:13;99604.38;;;14.14;100.00
21545;BME280;10933;50.754;11.508;2022-10-16T07:13:41;99606.03;;;14.00;100.00
21545;BME280;10933;50.754;11.508;2022-10-16T07:16:13;99608.75;;;13.74;100.00
21545;BME280;10933;50.754;11.508;2022-10-16T07:18:40;99604.66;;;14.02;100.00
21545;BME280;10933;50.754;11.508;2022-10-16T07:21:11;99606.31;;;13.88;100.00
21545;BME280;10933;50.754;11.508;2022-10-16T07:23:41;99607.94;;;13.99;100.00
21545;BME280;10933;50.754;11.508;2022-10-16T07:26:07;99613.88;;;14.11;100.00
21545;BME280;10933;50.754;11.508;2022-10-16T07:28:34;99607.38;;;14.12;100.00
21545;BME280;10933;50.754;11.508;2022-10-16T07:31:09;99618.75;;;14.25;100.00
21545;BME280;10933;50.754;11.508;2022-10-16T07:33:37;99612.78;;;14.38;100.00
21545;BME280;10933;50.754;11.508;2022-10-16T07:36:04;99617.09;;;14.34;100.00
21545;BME280;10933;50.754;11.508;2022-10-16T07:38:31;99613.34;;;14.25;100.00
21545;BME280;10933;50.754;11.508;2022-10-16T07:41:03;99608.97;;;14.29;100.00
21545;BME280;10933;50.754;11.508;2022-10-16T07:43:30;99623.34;;;14.55;100.00
21545;BME280;10933;50.754;11.508;2022-10-16T07:45:56;99619.28;;;14.37;100.00
21545;BME280;10933;50.754;11.508;2022-10-16T07:48:24;99616.75;;;14.81;100.00
21545;BME280;10933;50.754;11.508;2022-10-16T07:50:52;99611.03;;;14.88;100.00
21545;BME280;10933;50.754;11.508;2022-10-16T07:53:18;99618.13;;;14.79;100.00
21545;BME280;10933;50.754;11.508;2022-10-16T07:55:44;99614.25;;;15.00;100.00
21545;BME280;10933;50.754;11.508;2022-10-16T07:58:10;99616.00;;;14.65;100.00
21545;BME280;10933;50.754;11.508;2022-10-16T08:00:37;99618.13;;;14.68;100.00
21545;BME280;10933;50.754;11.508;2022-10-16T08:03:03;99620.31;;;14.77;100.00
21545;BME280;10933;50.754;11.508;2022-10-16T08:05:31;99614.91;;;14.66;100.00
21545;BME280;10933;50.754;11.508;2022-10-16T08:07:58;99621.94;;;14.78;100.00
21545;BME280;10933;50.754;11.508;2022-10-16T08:10:27;99621.34;;;14.86;100.00
21545;BME280;10933;50.754;11.508;2022-10-16T08:12:53;99632.97;;;15.01;100.00
21545;BME280;10933;50.754;11.508;2022-10-16T08:15:20;99629.47;;;14.91;100.00
21545;BME280;10933;50.754;11.508;2022-10-16T08:17:57;99636.91;;;15.29;100.00
21545;BME280;10933;50.754;11.508;2022-10-16T08:20:24;99640.41;;;15.35;100.00
21545;BME280;10933;50.754;11.508;2022-10-16T08:22:51;99662.78;;;15.71;100.00
21545;BME280;10933;50.754;11.508;2022-10-16T08:25:17;99655.66;;;15.80;100.00
21545;BME280;10933;50.754;11.508;2022-10-16T08:27:43;99649.34;;;15.90;100.00
21545;BME280;10933;50.754;11.508;2022-10-16T08:30:10;99633.84;;;15.91;100.00
21545;BME280;10933;50.754;11.508;2022-10-16T08:32:37;99642.03;;;15.85;100.00
21545;BME280;10933;50.754;11.508;2022-10-16T08:35:03;99655.22;;;16.65;100.00
21545;BME280;10933;50.754;11.508;2022-10-16T08:37:32;99652.59;;;16.26;100.00
21545;BME280;10933;50.754;11.508;2022-10-16T08:39:59;99641.03;;;16.39;100.00
21545;BME280;10933;50.754;11.508;2022-10-16T08:50:43;99667.59;;;16.53;100.00
21545;BME280;10933;50.754;11.508;2022-10-16T08:53:26;99674.53;;;16.64;100.00
21545;BME280;10933;50.754;11.508;2022-10-16T08:55:54;99670.25;;;16.58;100.00
21545;BME280;10933;50.754;11.508;2022-10-16T08:58:23;99687.31;;;16.97;100.00
21545;BME280;10933;50.754;11.508;2022-10-16T09:00:57;99679.13;;;16.97;100.00
21545;BME280;10933;50.754;11.508;2022-10-16T09:16:30;99689.16;;;18.06;100.00
21545;BME280;10933;50.754;11.508;2022-10-16T09:21:37;99691.56;;;18.59;100.00
21545;BME280;10933;50.754;11.508;2022-10-16T09:24:14;99692.63;;;18.77;100.00
21545;BME280;10933;50.754;11.508;2022-10-16T09:26:41;99688.19;;;18.95;100.00
21545;BME280;10933;50.754;11.508;2022-10-16T09:29:16;99687.38;;;19.35;100.00
21545;BME280;10933;50.754;11.508;2022-10-16T09:31:43;99686.78;;;19.11;100.00
21545;BME280;10933;50.754;11.508;2022-10-16T09:34:31;99682.91;;;19.39;100.00
21545;BME280;10933;50.754;11.508;2022-10-16T09:36:59;99685.03;;;18.88;100.00
21545;BME280;10933;50.754;11.508;2022-10-16T09:39:27;99680.00;;;18.81;100.00
21545;BME280;10933;50.754;11.508;2022-10-16T09:41:53;99679.47;;;18.93;100.00
21545;BME280;10933;50.754;11.508;2022-10-16T09:44:29;99691.75;;;19.23;100.00
21545;BME280;10933;50.754;11.508;2022-10-16T09:49:29;99685.53;;;19.31;100.00
21545;BME280;10933;50.754;11.508;2022-10-16T09:52:09;99688.41;;;19.12;100.00
21545;BME280;10933;50.754;11.508;2022-10-16T09:54:37;99694.47;;;19.36;100.00
21545;BME280;10933;50.754;11.508;2022-10-16T09:57:10;99690.00;;;19.40;100.00
21545;BME280;10933;50.754;11.508;2022-10-16T09:59:50;99695.06;;;19.61;100.00
21545;BME280;10933;50.754;11.508;2022-10-16T10:02:30;99686.13;;;19.69;100.00
21545;BME280;10933;50.754;11.508;2022-10-16T10:04:57;99693.84;;;19.39;100.00
21545;BME280;10933;50.754;11.508;2022-10-16T10:07:28;99684.91;;;20.20;100.00
21545;BME280;10933;50.754;11.508;2022-10-16T10:09:58;99688.91;;;20.90;100.00
21545;BME280;10933;50.754;11.508;2022-10-16T10:12:26;99696.28;;;21.20;100.00
21545;BME280;10933;50.754;11.508;2022-10-16T10:14:56;99694.88;;;21.23;100.00
21545;BME280;10933;50.754;11.508;2022-10-16T10:17:25;99695.59;;;20.97;100.00
21545;BME280;10933;50.754;11.508;2022-10-16T10:22:39;99681.50;;;20.90;100.00
21545;BME280;10933;50.754;11.508;2022-10-16T10:28:17;99681.66;;;20.85;100.00
21545;BME280;10933;50.754;11.508;2022-10-16T10:30:56;99683.75;;;21.28;100.00
21545;BME280;10933;50.754;11.508;2022-10-16T10:36:56;99686.31;;;22.24;100.00
21545;BME280;10933;50.754;11.508;2022-10-16T10:39:46;99684.03;;;21.74;100.00
21545;BME280;10933;50.754;11.508;2022-10-16T10:42:31;99688.53;;;21.96;100.00
21545;BME280;10933;50.754;11.508;2022-10-16T10:50:26;99684.22;;;20.50;100.00
21545;BME280;10933;50.754;11.508;2022-10-16T10:53:02;99698.75;;;20.15;100.00
21545;BME280;10933;50.754;11.508;2022-10-16T11:06:08;99716.94;;;19.47;100.00
21545;BME280;10933;50.754;11.508;2022-10-16T11:08:42;99713.13;;;19.34;100.00
21545;BME280;10933;50.754;11.508;2022-10-16T11:11:45;99718.47;;;19.39;100.00
21545;BME280;10933;50.754;11.508;2022-10-16T11:14:30;99716.66;;;19.21;100.00
21545;BME280;10933;50.754;11.508;2022-10-16T11:17:02;99718.91;;;19.19;100.00
21545;BME280;10933;50.754;11.508;2022-10-16T11:25:29;99750.59;;;19.06;100.00
21545;BME280;10933;50.754;11.508;2022-10-16T11:30:31;99745.94;;;19.07;100.00
21545;BME280;10933;50.754;11.508;2022-10-16T11:35:48;99740.66;;;19.52;100.00
21545;BME280;10933;50.754;11.508;2022-10-16T11:40:47;99736.63;;;19.22;100.00
21545;BME280;10933;50.754;11.508;2022-10-16T11:43:41;99737.22;;;19.32;100.00
21545;BME280;10933;50.754;11.508;2022-10-16T11:46:13;99739.22;;;19.40;100.00
21545;BME280;10933;50.754;11.508;2022-10-16T11:54:18;99734.38;;;19.65;100.00
21545;BME280;10933;50.754;11.508;2022-10-16T11:56:50;99735.94;;;19.93;100.00
21545;BME280;10933;50.754;11.508;2022-10-16T11:59:32;99737.56;;;19.94;100.00
21545;BME280;10933;50.754;11.508;2022-10-16T12:05:11;99743.81;;;20.09;100.00
21545;BME280;10933;50.754;11.508;2022-10-16T12:07:49;99748.91;;;20.02;100.00
21545;BME280;10933;50.754;11.508;2022-10-16T12:10:26;99737.94;;;19.65;100.00
21545;BME280;10933;50.754;11.508;2022-10-16T12:12:52;99740.63;;;19.79;100.00
21545;BME280;10933;50.754;11.508;2022-10-16T12:15:22;99736.19;;;20.42;100.00
21545;BME280;10933;50.754;11.508;2022-10-16T12:17:50;99735.06;;;20.65;100.00
21545;BME280;10933;50.754;11.508;2022-10-16T12:22:56;99739.63;;;21.32;100.00
21545;BME280;10933;50.754;11.508;2022-10-16T12:25:37;99727.38;;;21.38;100.00
21545;BME280;10933;50.754;11.508;2022-10-16T12:28:21;99733.97;;;22.20;100.00
21545;BME280;10933;50.754;11.508;2022-10-16T12:31:14;99739.44;;;23.27;100.00
21545;BME280;10933;50.754;11.508;2022-10-16T12:33:43;99732.03;;;22.20;100.00
21545;BME280;10933;50.754;11.508;2022-10-16T12:36:32;99735.00;;;24.56;100.00
21545;BME280;10933;50.754;11.508;2022-10-16T12:39:00;99729.06;;;23.62;100.00
21545;BME280;10933;50.754;11.508;2022-10-16T12:41:36;99723.50;;;22.13;100.00
21545;BME280;10933;50.754;11.508;2022-10-16T12:44:20;99720.00;;;21.64;100.00
21545;BME280;10933;50.754;11.508;2022-10-16T12:46:47;99715.16;;;21.70;100.00
21545;BME280;10933;50.754;11.508;2022-10-16T12:51:41;99719.16;;;22.94;100.00
21545;BME280;10933;50.754;11.508;2022-10-16T12:54:14;99720.81;;;22.77;100.00
21545;BME280;10933;50.754;11.508;2022-10-16T12:57:06;99723.50;;;21.39;100.00
21545;BME280;10933;50.754;11.508;2022-10-16T13:10:41;99741.59;;;20.78;100.00
21545;BME280;10933;50.754;11.508;2022-10-16T13:13:20;99740.34;;;20.17;100.00
21545;BME280;10933;50.754;11.508;2022-10-16T13:16:08;99732.31;;;20.20;100.00
21545;BME280;10933;50.754;11.508;2022-10-16T13:24:13;99737.00;;;20.96;100.00
21545;BME280;10933;50.754;11.508;2022-10-16T13:27:01;99741.44;;;20.83;100.00
21545;BME280;10933;50.754;11.508;2022-10-16T13:29:32;99743.34;;;20.74;100.00
21545;BME280;10933;50.754;11.508;2022-10-16T13:32:01;99743.72;;;20.36;100.00
21545;BME280;10933;50.754;11.508;2022-10-16T13:34:32;99753.56;;;20.37;100.00
21545;BME280;10933;50.754;11.508;2022-10-16T13:36:59;99753.13;;;20.21;100.00
21545;BME280;10933;50.754;11.508;2022-10-16T13:39:29;99756.94;;;19.98;100.00
21545;BME280;10933;50.754;11.508;2022-10-16T13:42:25;99744.47;;;19.92;100.00
21545;BME280;10933;50.754;11.508;2022-10-16T13:44:54;99755.69;;;20.85;100.00
21545;BME280;10933;50.754;11.508;2022-10-16T13:47:26;99744.16;;;21.05;100.00
21545;BME280;10933;50.754;11.508;2022-10-16T13:50:11;99744.44;;;21.92;100.00
21545;BME280;10933;50.754;11.508;2022-10-16T13:52:38;99747.97;;;21.84;100.00
21545;BME280;10933;50.754;11.508;2022-10-16T13:55:25;99743.19;;;22.15;100.00
21545;BME280;10933;50.754;11.508;2022-10-16T13:57:51;99747.31;;;21.69;100.00
21545;BME280;10933;50.754;11.508;2022-10-16T14:00:21;99741.38;;;21.93;100.00
21545;BME280;10933;50.754;11.508;2022-10-16T14:03:01;99744.44;;;21.74;100.00
21545;BME280;10933;50.754;11.508;2022-10-16T14:05:29;99748.19;;;21.08;100.00
21545;BME280;10933;50.754;11.508;2022-10-16T14:07:55;99749.66;;;20.74;100.00
21545;BME280;10933;50.754;11.508;2022-10-16T14:10:25;99747.97;;;20.65;100.00
21545;BME280;10933;50.754;11.508;2022-10-16T14:13:02;99759.31;;;20.49;100.00
21545;BME280;10933;50.754;11.508;2022-10-16T14:15:30;99759.41;;;20.22;100.00
21545;BME280;10933;50.754;11.508;2022-10-16T14:17:58;99764.06;;;20.21;100.00
21545;BME280;10933;50.754;11.508;2022-10-16T14:20:33;99771.22;;;20.09;100.00
21545;BME280;10933;50.754;11.508;2022-10-16T14:23:22;99764.31;;;20.11;100.00
21545;BME280;10933;50.754;11.508;2022-10-16T14:25:49;99770.16;;;20.18;100.00
21545;BME280;10933;50.754;11.508;2022-10-16T14:28:17;99770.47;;;20.17;100.00
21545;BME280;10933;50.754;11.508;2022-10-16T14:30:57;99760.25;;;20.09;100.00
21545;BME280;10933;50.754;11.508;2022-10-16T14:33:30;99761.59;;;19.97;100.00
21545;BME280;10933;50.754;11.508;2022-10-16T14:38:36;99771.00;;;20.05;100.00
21545;BME280;10933;50.754;11.508;2022-10-16T14:41:04;99771.22;;;20.09;100.00
21545;BME280;10933;50.754;11.508;2022-10-16T14:43:35;99775.63;;;20.54;100.00
21545;BME280;10933;50.754;11.508;2022-10-16T14:46:03;99768.53;;;20.76;100.00
21545;BME280;10933;50.754;11.508;2022-10-16T14:48:32;99775.94;;;20.53;100.00